Time;durP1;ratioP1;P1;durP2;ratioP2;P2;SDS_P1;SDS_P2;PMS_P1;PMS_P2;Temp;Humidity;BMP_temperature;BMP_pressure;BME280_temperature;BME280_humidity;BME280_pressure;Samples;Min_cycle;Max_cycle;Signal;HPM_P1;HPM_P2
2022/01/18 00:03:23;;;;;;;2.72;1.70;;;;;;;20.52;nan;101246.03;20386444;28;101698;-67
2022/01/18 00:13:48;;;;;;;1.98;1.60;;;;;;;20.48;nan;101263.78;20384855;28;101662;-67
2022/01/18 00:23:46;;;;;;;2.20;1.40;;;;;;;20.45;nan;101284.16;20385107;28;98314;-67
2022/01/18 00:34:01;;;;;;;2.13;1.48;;;;;;;20.40;nan;101302.84;20372243;28;99020;-66
2022/01/18 00:44:03;;;;;;;2.15;1.33;;;;;;;20.39;nan;101326.63;20335335;28;99203;-67
2022/01/18 00:54:07;;;;;;;2.28;1.50;;;;;;;20.36;nan;101329.41;20377929;28;104064;-67
2022/01/18 01:04:07;;;;;;;2.20;1.38;;;;;;;20.33;nan;101343.59;20396084;28;102466;-67
2022/01/18 01:14:14;;;;;;;2.00;1.20;;;;;;;20.30;nan;101352.53;20401105;28;103467;-68
2022/01/18 01:35:06;;;;;;;2.78;1.30;;;;;;;20.24;nan;101352.88;20401248;28;102518;-67
2022/01/18 01:44:56;;;;;;;2.17;1.30;;;;;;;20.21;nan;101357.47;20396919;28;101831;-67
2022/01/18 01:54:57;;;;;;;2.28;1.33;;;;;;;20.17;nan;101369.09;20398040;28;104122;-67
2022/01/18 02:04:58;;;;;;;1.70;1.30;;;;;;;20.15;nan;101398.09;20389531;28;101875;-67
2022/01/18 02:15:02;;;;;;;1.65;1.10;;;;;;;20.13;nan;101410.50;20387655;28;102311;-67
2022/01/18 02:25:03;;;;;;;2.17;1.00;;;;;;;20.11;nan;101436.88;20395279;28;101525;-67
2022/01/18 02:35:05;;;;;;;2.63;1.27;;;;;;;20.09;nan;101424.75;20388771;28;98382;-67
2022/01/18 02:45:07;;;;;;;1.37;1.13;;;;;;;20.07;nan;101440.63;20393091;28;100847;-66
2022/01/18 02:55:09;;;;;;;1.35;1.10;;;;;;;20.07;nan;101452.94;20373593;28;101334;-67
2022/01/18 03:05:12;;;;;;;1.17;1.08;;;;;;;20.07;nan;101466.06;20343288;28;101681;-68
2022/01/18 03:15:14;;;;;;;1.83;1.15;;;;;;;20.05;nan;101471.41;20348637;28;99665;-68
2022/01/18 03:25:38;;;;;;;3.05;1.33;;;;;;;20.05;nan;101508.19;20327382;28;100086;-67
2022/01/18 03:35:40;;;;;;;1.98;1.10;;;;;;;20.04;nan;101524.06;20367245;28;102021;-66
2022/01/18 03:45:44;;;;;;;2.47;1.00;;;;;;;20.03;nan;101548.66;20348593;28;100836;-67
2022/01/18 03:55:47;;;;;;;2.38;1.20;;;;;;;20.02;nan;101555.72;20324395;28;98758;-68
2022/01/18 04:05:48;;;;;;;1.83;1.03;;;;;;;20.01;nan;101561.91;20364037;28;98021;-68
2022/01/18 04:15:48;;;;;;;3.40;1.05;;;;;;;20.00;nan;101573.34;20382035;28;102778;-68
2022/01/18 04:35:53;;;;;;;1.60;0.90;;;;;;;19.99;nan;101577.75;20396605;28;102053;-66
2022/01/18 04:56:18;;;;;;;1.77;1.10;;;;;;;20.00;nan;101597.00;20399932;28;100368;-67
2022/01/18 05:06:20;;;;;;;4.30;1.00;;;;;;;19.99;nan;101608.44;20398296;28;101499;-67
2022/01/18 05:26:22;;;;;;;6.50;1.10;;;;;;;20.22;nan;101616.91;20398741;28;101807;-68
2022/01/18 05:36:23;;;;;;;10.60;1.20;;;;;;;20.40;nan;101630.84;20390105;28;98873;-70
2022/01/18 05:46:25;;;;;;;3.88;1.10;;;;;;;20.51;nan;101649.50;20409316;28;99624;-67
2022/01/18 05:56:27;;;;;;;2.85;1.20;;;;;;;20.61;nan;101663.84;20388902;28;99370;-67
2022/01/18 06:16:48;;;;;;;5.20;1.27;;;;;;;20.63;nan;101658.53;20383030;28;101796;-69
2022/01/18 06:26:49;;;;;;;9.47;1.87;;;;;;;20.68;nan;101638.06;20390531;28;103564;-70
2022/01/18 06:36:51;;;;;;;13.25;2.10;;;;;;;20.64;nan;101652.31;20390826;28;102306;-67
2022/01/18 06:46:53;;;;;;;14.98;3.20;;;;;;;20.71;nan;101663.34;20382673;28;99090;-69
2022/01/18 06:56:53;;;;;;;7.53;2.50;;;;;;;20.72;nan;101673.81;20398262;28;97992;-69
2022/01/18 07:06:54;;;;;;;11.45;2.92;;;;;;;20.77;nan;101663.06;20419423;28;101234;-68
2022/01/18 07:16:55;;;;;;;10.97;3.53;;;;;;;20.80;nan;101660.25;20416629;28;98438;-66
2022/01/18 07:26:56;;;;;;;9.23;2.50;;;;;;;20.87;nan;101653.72;20425878;28;102851;-67
2022/01/18 07:36:58;;;;;;;10.70;2.85;;;;;;;20.92;nan;101649.03;20415619;28;102117;-67
2022/01/18 07:46:59;;;;;;;9.63;2.80;;;;;;;20.93;nan;101677.06;20422229;28;97833;-67
2022/01/18 07:56:59;;;;;;;7.35;2.90;;;;;;;20.99;nan;101710.09;20426399;28;97293;-67
2022/01/18 08:06:59;;;;;;;5.93;2.22;;;;;;;21.04;nan;101741.44;20434165;28;97542;-67
2022/01/18 08:17:04;;;;;;;6.95;2.80;;;;;;;21.08;nan;101753.50;20436784;28;97498;-67
2022/01/18 08:27:05;;;;;;;7.88;2.15;;;;;;;21.11;nan;101761.25;20429025;28;97588;-67
2022/01/18 08:37:05;;;;;;;8.27;2.47;;;;;;;21.14;nan;101792.69;20429139;28;98598;-67
2022/01/18 08:47:06;;;;;;;7.80;2.28;;;;;;;21.21;nan;101785.28;20410042;28;101934;-68
2022/01/18 08:57:06;;;;;;;12.40;2.67;;;;;;;21.26;nan;101805.19;20388227;28;98188;-70
2022/01/18 09:07:09;;;;;;;5.60;2.15;;;;;;;21.33;nan;101796.94;20392413;28;102163;-68
2022/01/18 09:17:10;;;;;;;7.30;3.15;;;;;;;21.36;nan;101829.22;20368033;28;101673;-68
2022/01/18 09:27:11;;;;;;;15.65;4.07;;;;;;;21.42;nan;101838.56;20376159;28;102173;-72
2022/01/18 09:37:11;;;;;;;39.70;6.10;;;;;;;21.48;nan;101855.84;20392263;28;97795;-71
2022/01/18 09:47:14;;;;;;;24.40;6.00;;;;;;;21.54;nan;101855.50;20441245;28;99909;-67
2022/01/18 09:57:15;;;;;;;21.45;6.70;;;;;;;21.58;nan;101843.84;20439241;28;97349;-67
2022/01/18 10:07:15;;;;;;;23.10;7.37;;;;;;;21.64;nan;101838.28;20441882;28;98335;-66
2022/01/18 10:17:31;;;;;;;26.05;8.75;;;;;;;21.70;nan;101850.25;20440712;28;98957;-67
2022/01/18 10:27:35;;;;;;;26.42;8.98;;;;;;;21.77;nan;101827.88;20437847;28;101352;-69
2022/01/18 10:37:41;;;;;;;19.05;9.05;;;;;;;21.85;nan;101835.31;20419020;28;98106;-69
2022/01/18 10:47:51;;;;;;;17.45;8.52;;;;;;;21.93;nan;101830.47;20381854;28;97646;-70
2022/01/18 10:57:53;;;;;;;25.20;10.75;;;;;;;21.99;nan;101835.38;20364510;28;98352;-70
2022/01/18 11:07:56;;;;;;;;;;;;;;;22.07;nan;101827.88;20433805;28;97995;-68
2022/01/18 11:18:04;;;;;;;27.42;10.90;;;;;;;22.15;nan;101851.16;20398066;28;98328;-69
2022/01/18 11:28:07;;;;;;;22.13;10.48;;;;;;;22.22;nan;101854.31;20418530;28;98235;-69
2022/01/18 11:38:41;;;;;;;21.75;9.77;;;;;;;22.29;nan;101849.50;20421291;28;97619;-69
2022/01/18 11:48:48;;;;;;;20.67;9.77;;;;;;;22.36;nan;101849.06;20421749;28;97810;-70
2022/01/18 11:59:13;;;;;;;25.73;9.98;;;;;;;22.46;nan;101843.25;20391804;28;103932;-71
2022/01/18 12:09:41;;;;;;;24.25;10.48;;;;;;;22.52;nan;101833.19;20346880;28;98203;-73
2022/01/18 12:19:46;;;;;;;18.70;10.45;;;;;;;22.58;nan;101842.50;20355777;28;98343;-69
2022/01/18 12:31:34;;;;;;;33.90;11.55;;;;;;;22.68;nan;101842.84;20358374;28;99430;-67
2022/01/18 12:40:48;;;;;;;21.92;10.73;;;;;;;22.73;nan;101861.00;20386914;28;99626;-67
2022/01/18 12:50:52;;;;;;;25.30;10.18;;;;;;;22.79;nan;101880.00;20407261;28;101987;-69
2022/01/18 13:00:59;;;;;;;16.35;7.60;;;;;;;22.49;nan;101880.88;20430951;28;98754;-69
2022/01/18 13:11:00;;;;;;;27.23;5.40;;;;;;;22.29;nan;101882.03;20437710;28;98334;-69
2022/01/18 13:31:24;;;;;;;8.85;3.75;;;;;;;22.02;nan;101892.38;20411377;28;98016;-70
2022/01/18 13:41:24;;;;;;;11.48;4.00;;;;;;;21.99;nan;101887.28;20416965;28;99451;-69
2022/01/18 13:51:25;;;;;;;8.65;3.97;;;;;;;22.11;nan;101899.78;20430855;28;101403;-71
2022/01/18 14:01:28;;;;;;;20.15;4.25;;;;;;;22.07;nan;101896.47;20426427;28;97838;-71
2022/01/18 14:11:33;;;;;;;10.07;4.05;;;;;;;22.06;nan;101893.94;20406926;28;98054;-70
2022/01/18 14:21:44;;;;;;;9.13;3.85;;;;;;;22.02;nan;101898.53;20417882;28;98081;-69
2022/01/18 14:32:06;;;;;;;11.15;3.83;;;;;;;21.99;nan;101903.13;20421759;28;102851;-71
2022/01/18 14:42:07;;;;;;;5.73;3.57;;;;;;;21.94;nan;101915.72;20431157;28;98523;-69
2022/01/18 14:52:07;;;;;;;8.85;3.47;;;;;;;21.87;nan;101910.81;20407108;28;102868;-69
2022/01/18 15:02:10;;;;;;;8.73;3.10;;;;;;;21.79;nan;101906.88;20361784;28;99617;-69
2022/01/18 15:12:10;;;;;;;6.07;3.28;;;;;;;21.67;nan;101935.63;20388858;28;97934;-70
2022/01/18 15:22:11;;;;;;;5.15;3.13;;;;;;;21.58;nan;101947.53;20376753;28;97696;-69
2022/01/18 15:32:13;;;;;;;6.63;3.08;;;;;;;21.59;nan;101949.22;20347410;28;99703;-69
2022/01/18 15:42:17;;;;;;;10.10;3.13;;;;;;;21.52;nan;101966.28;20371287;28;100026;-68
2022/01/18 15:52:19;;;;;;;9.13;2.95;;;;;;;21.51;nan;101982.19;20346477;28;98215;-69
2022/01/18 16:02:22;;;;;;;8.57;3.15;;;;;;;19.59;nan;101987.09;20421257;28;100427;-68
2022/01/18 16:12:23;;;;;;;;;;;;;;;20.35;nan;101967.81;20383703;28;100650;-68
2022/01/18 16:22:24;;;;;;;8.57;2.80;;;;;;;20.62;nan;101977.91;20403838;28;98473;-68
2022/01/18 16:32:25;;;;;;;11.27;4.50;;;;;;;20.81;nan;101987.53;20410498;28;101875;-68
2022/01/18 16:42:25;;;;;;;13.03;4.37;;;;;;;20.95;nan;101985.06;20413714;28;102491;-68
2022/01/18 16:52:26;;;;;;;11.82;4.30;;;;;;;21.10;nan;101999.22;20421166;28;99418;-69
2022/01/18 17:02:26;;;;;;;9.20;4.28;;;;;;;21.22;nan;102022.28;20411634;28;98722;-67
2022/01/18 17:12:27;;;;;;;13.93;4.50;;;;;;;21.25;nan;101995.78;20406610;28;98057;-67
2022/01/18 17:22:27;;;;;;;13.85;4.35;;;;;;;21.30;nan;102023.66;20415689;28;98896;-67
2022/01/18 17:32:28;;;;;;;10.03;4.33;;;;;;;21.36;nan;102032.13;20410654;28;99758;-68
2022/01/18 17:42:29;;;;;;;11.43;4.95;;;;;;;21.42;nan;102025.66;20406333;28;102475;-67
2022/01/18 17:52:29;;;;;;;10.52;5.00;;;;;;;21.44;nan;102071.25;20396223;28;106688;-67
2022/01/18 18:02:30;;;;;;;9.82;4.75;;;;;;;21.52;nan;102047.13;20402095;28;100682;-67
2022/01/18 18:12:31;;;;;;;15.00;4.50;;;;;;;21.60;nan;102079.22;20406163;28;101052;-67
2022/01/18 18:22:32;;;;;;;17.73;5.45;;;;;;;21.70;nan;102079.59;20407140;28;100102;-66
2022/01/18 18:32:32;;;;;;;14.93;5.35;;;;;;;21.75;nan;102067.88;20399784;28;98332;-67
2022/01/18 18:52:56;;;;;;;13.77;4.67;;;;;;;21.90;nan;102057.47;20400882;28;102543;-66
2022/01/18 19:03:34;;;;;;;14.25;4.78;;;;;;;21.96;nan;102053.63;20380968;28;100541;-68
2022/01/18 19:13:29;;;;;;;11.52;4.13;;;;;;;22.01;nan;102031.34;20369436;28;97743;-67
2022/01/18 19:23:31;;;;;;;20.67;4.35;;;;;;;22.07;nan;102056.53;20356333;28;99353;-66
2022/01/18 19:33:32;;;;;;;10.77;4.57;;;;;;;22.14;nan;102078.16;20401545;28;98439;-66
2022/01/18 19:43:33;;;;;;;7.47;3.97;;;;;;;22.10;nan;102077.47;20361538;28;98891;-68
2022/01/18 19:53:34;;;;;;;9.27;3.80;;;;;;;22.05;nan;102101.44;20356653;28;101120;-66
2022/01/18 20:03:39;;;;;;;12.48;4.07;;;;;;;22.11;nan;102104.72;20352023;28;99693;-67
2022/01/18 20:13:40;;;;;;;10.25;4.00;;;;;;;22.10;nan;102097.72;20341488;28;100988;-66
2022/01/18 20:23:47;;;;;;;8.25;3.38;;;;;;;22.06;nan;102084.69;20335844;28;99620;-67
2022/01/18 20:33:52;;;;;;;16.20;4.80;;;;;;;21.93;nan;102061.72;20374887;28;101389;-65
2022/01/18 20:43:57;;;;;;;13.88;4.20;;;;;;;21.69;nan;102039.22;20350106;28;99939;-66
2022/01/18 20:53:58;;;;;;;11.63;4.70;;;;;;;21.67;nan;102074.50;20395129;28;99144;-66
2022/01/18 21:04:05;;;;;;;11.50;4.80;;;;;;;21.58;nan;102121.50;20381654;28;98647;-65
2022/01/18 21:14:14;;;;;;;10.68;4.55;;;;;;;21.49;nan;102156.19;20419211;28;102020;-65
2022/01/18 21:24:14;;;;;;;12.20;4.55;;;;;;;21.43;nan;102159.13;20424169;28;99117;-66
2022/01/18 21:34:15;;;;;;;10.87;4.50;;;;;;;21.36;nan;102179.69;20413235;28;99996;-67
2022/01/18 21:44:17;;;;;;;10.63;4.80;;;;;;;21.31;nan;102178.19;20423359;28;102696;-66
2022/01/18 21:54:18;;;;;;;9.40;4.53;;;;;;;21.20;nan;102163.78;20408628;28;98979;-65
2022/01/18 22:04:19;;;;;;;9.32;4.97;;;;;;;21.13;nan;102158.88;20414071;28;101727;-65
2022/01/18 22:14:19;;;;;;;8.55;4.10;;;;;;;21.09;nan;102155.53;20412830;28;102491;-65
2022/01/18 22:24:20;;;;;;;7.60;4.10;;;;;;;21.05;nan;102151.38;20406175;28;99638;-65
2022/01/18 22:34:21;;;;;;;9.00;4.32;;;;;;;21.01;nan;102149.81;20404134;28;99664;-65
2022/01/18 22:44:28;;;;;;;9.77;4.28;;;;;;;21.00;nan;102150.75;20401782;28;101026;-65
2022/01/18 22:54:29;;;;;;;5.97;3.95;;;;;;;20.95;nan;102140.44;20402973;28;97938;-65
2022/01/18 23:04:30;;;;;;;5.32;3.47;;;;;;;20.90;nan;102148.53;20396582;28;101905;-66
2022/01/18 23:14:31;;;;;;;8.68;3.83;;;;;;;20.83;nan;102128.69;20404645;28;109175;-66
2022/01/18 23:24:32;;;;;;;7.25;3.53;;;;;;;20.77;nan;102114.03;20404600;28;101133;-66
2022/01/18 23:34:32;;;;;;;8.23;3.42;;;;;;;20.72;nan;102137.13;20399782;28;102895;-66
2022/01/18 23:44:34;;;;;;;5.32;3.42;;;;;;;20.69;nan;102131.09;20418108;28;100934;-66
2022/01/18 23:54:39;;;;;;;5.28;3.20;;;;;;;20.68;nan;102134.66;20407129;28;101536;-66
